createdAt,value
2018-03-19T00:02:24.767Z,11.20
2018-03-19T00:04:53.039Z,11.65
2018-03-19T00:07:20.539Z,10.30
2018-03-19T00:09:48.071Z,11.57
2018-03-19T00:12:16.336Z,10.93
2018-03-19T00:14:44.616Z,10.80
2018-03-19T00:17:12.887Z,10.40
2018-03-19T00:19:40.395Z,10.35
2018-03-19T00:22:07.946Z,11.38
2018-03-19T00:24:35.459Z,10.65
2018-03-19T00:27:02.964Z,12.07
2018-03-19T00:29:30.460Z,11.68
2018-03-19T00:31:57.981Z,10.55
2018-03-19T00:34:25.506Z,12.50
2018-03-19T00:36:53.771Z,10.45
2018-03-19T00:39:21.274Z,11.23
2018-03-19T00:41:48.787Z,11.77
2018-03-19T00:44:16.279Z,12.15
2018-03-19T00:46:43.794Z,12.68
2018-03-19T00:49:12.063Z,12.27
2018-03-19T00:51:39.563Z,11.30
2018-03-19T00:54:07.095Z,11.32
2018-03-19T00:56:34.597Z,10.15
2018-03-19T00:59:02.102Z,12.63
2018-03-19T01:01:29.629Z,10.25
2018-03-19T01:03:57.132Z,12.70
2018-03-19T01:06:24.708Z,11.25
2018-03-19T01:08:52.972Z,11.35
2018-03-19T01:11:21.259Z,11.18
2018-03-19T01:13:49.539Z,11.07
2018-03-19T01:16:17.815Z,10.50
2018-03-19T01:18:46.101Z,11.38
2018-03-19T01:21:13.607Z,11.30
2018-03-19T01:23:41.115Z,10.90
2018-03-19T01:26:08.624Z,11.52
2018-03-19T01:28:36.151Z,11.38
2018-03-19T01:31:03.660Z,11.95
2018-03-19T01:33:31.163Z,12.18
2018-03-19T01:35:58.687Z,11.57
2018-03-19T01:38:26.979Z,11.48
2018-03-19T01:40:55.239Z,11.30
2018-03-19T01:43:22.739Z,11.20
2018-03-19T01:45:50.235Z,11.38
2018-03-19T01:48:17.735Z,11.57
2018-03-19T01:50:45.247Z,12.05
2018-03-19T01:53:12.743Z,11.95
2018-03-19T01:55:41.019Z,11.35
2018-03-19T01:58:09.303Z,9.52
2018-03-19T02:00:37.592Z,10.52
2018-03-19T02:03:05.100Z,10.90
2018-03-19T02:05:32.596Z,10.90
2018-03-19T02:08:00.107Z,10.60
2018-03-19T02:10:27.623Z,10.98
2018-03-19T02:12:55.135Z,12.57
2018-03-19T02:15:22.659Z,11.43
2018-03-19T02:17:50.169Z,11.32
2018-03-19T02:20:18.446Z,12.02
2018-03-19T02:22:46.719Z,11.48
2018-03-19T02:25:14.260Z,11.30
2018-03-19T02:27:41.769Z,10.77
2018-03-19T02:30:09.269Z,11.40
2018-03-19T02:32:36.780Z,10.63
2018-03-19T02:35:04.295Z,11.27
2018-03-19T02:37:31.813Z,12.20
2018-03-19T02:39:59.336Z,11.55
2018-03-19T02:42:27.603Z,11.80
2018-03-19T02:44:55.107Z,10.68
2018-03-19T02:47:22.631Z,11.00
2018-03-19T02:49:50.894Z,12.65
2018-03-19T02:52:18.408Z,11.52
2018-03-19T02:54:45.902Z,9.50
2018-03-19T02:57:14.928Z,10.77
2018-03-19T02:59:43.203Z,11.07
2018-03-19T03:02:11.464Z,10.30
2018-03-19T03:04:38.976Z,10.77
2018-03-19T03:07:06.475Z,11.25
2018-03-19T03:09:33.975Z,10.25
2018-03-19T03:12:01.475Z,11.88
2018-03-19T03:14:28.975Z,11.15
2018-03-19T03:16:57.246Z,11.30
2018-03-19T03:19:25.523Z,11.77
2018-03-19T03:21:53.791Z,11.38
2018-03-19T03:24:22.060Z,10.90
2018-03-19T03:26:49.563Z,10.20
2018-03-19T03:29:17.067Z,11.60
2018-03-19T03:31:44.580Z,11.70
2018-03-19T03:34:12.083Z,11.25
2018-03-19T03:36:39.606Z,11.55
2018-03-19T03:39:07.113Z,11.12
2018-03-19T03:41:35.378Z,11.12
2018-03-19T03:44:02.891Z,11.43
2018-03-19T03:46:30.390Z,11.35
2018-03-19T03:48:57.897Z,11.38
2018-03-19T03:51:25.414Z,11.32
2018-03-19T03:53:52.928Z,11.23
2018-03-19T03:56:20.426Z,11.35
2018-03-19T03:58:49.443Z,10.90
2018-03-19T04:01:17.717Z,11.88
2018-03-19T04:03:46.003Z,10.35
2018-03-19T04:06:14.259Z,10.93
2018-03-19T04:08:41.758Z,12.75
2018-03-19T04:11:09.255Z,11.25
2018-03-19T04:13:36.763Z,12.27
2018-03-19T04:16:04.270Z,12.10
2018-03-19T04:18:31.780Z,11.23
2018-03-19T04:20:59.278Z,12.65
2018-03-19T04:23:26.796Z,10.85
2018-03-19T04:25:54.311Z,10.95
2018-03-19T04:28:21.815Z,11.20
2018-03-19T04:30:49.324Z,11.25
2018-03-19T04:33:16.844Z,11.60
2018-03-19T04:35:44.371Z,12.18
2018-03-19T04:38:12.639Z,10.98
2018-03-19T04:40:40.931Z,10.57
2018-03-19T04:43:09.215Z,10.32
2018-03-19T04:45:36.720Z,11.10
2018-03-19T04:48:04.227Z,11.50
2018-03-19T04:50:32.506Z,10.85
2018-03-19T04:53:00.012Z,12.02
2018-03-19T04:55:27.515Z,10.30
2018-03-19T04:57:55.782Z,10.57
2018-03-19T05:00:24.059Z,11.18
2018-03-19T05:02:52.323Z,11.52
2018-03-19T05:05:19.835Z,12.13
2018-03-19T05:07:47.353Z,10.68
2018-03-19T05:10:15.633Z,12.55
2018-03-19T05:12:43.915Z,11.02
2018-03-19T05:15:12.179Z,11.38
2018-03-19T05:17:40.499Z,13.13
2018-03-19T05:20:08.727Z,12.15
2018-03-19T05:22:36.239Z,12.80
2018-03-19T05:25:03.734Z,10.43
2018-03-19T05:27:31.998Z,10.98
2018-03-19T05:29:59.493Z,15.55
2018-03-19T05:32:27.763Z,13.20
2018-03-19T05:34:56.030Z,11.07
2018-03-19T05:37:24.309Z,13.65
2018-03-19T05:39:52.637Z,11.80
2018-03-19T05:42:20.888Z,11.98
2018-03-19T05:44:48.398Z,11.77
2018-03-19T05:47:15.918Z,12.68
2018-03-19T05:49:43.435Z,12.27
2018-03-19T05:52:10.941Z,11.50
2018-03-19T05:54:38.456Z,11.85
2018-03-19T05:57:06.847Z,12.02
2018-03-19T05:59:35.139Z,10.48
2018-03-19T06:02:02.639Z,11.80
2018-03-19T06:04:30.135Z,11.20
2018-03-19T06:06:58.395Z,11.88
2018-03-19T06:09:25.918Z,12.05
2018-03-19T06:11:53.424Z,12.27
2018-03-19T06:14:21.796Z,11.80
2018-03-19T06:16:49.293Z,12.10
2018-03-19T06:19:16.799Z,11.88
2018-03-19T06:21:44.302Z,10.60
2018-03-19T06:24:11.802Z,11.90
2018-03-19T06:26:39.331Z,11.25
2018-03-19T06:29:06.830Z,11.68
2018-03-19T06:31:34.360Z,12.37
2018-03-19T06:34:01.873Z,11.40
2018-03-19T06:36:30.187Z,12.07
2018-03-19T06:38:57.687Z,11.15
2018-03-19T06:41:26.707Z,11.73
2018-03-19T06:43:54.980Z,12.80
2018-03-19T06:46:23.243Z,10.65
2018-03-19T06:48:50.748Z,11.60
2018-03-19T06:51:18.259Z,11.70
2018-03-19T06:53:45.756Z,11.40
2018-03-19T06:56:13.265Z,10.45
2018-03-19T06:58:40.781Z,11.70
2018-03-19T07:01:08.389Z,11.07
2018-03-19T07:03:35.901Z,11.77
2018-03-19T07:06:03.420Z,12.43
2018-03-19T07:08:31.695Z,12.65
2018-03-19T07:10:59.267Z,12.65
2018-03-19T07:13:27.535Z,12.20
2018-03-19T07:15:55.807Z,11.20
2018-03-19T07:18:24.074Z,12.75
2018-03-19T07:20:51.601Z,11.55
2018-03-19T07:23:19.136Z,12.27
2018-03-19T07:25:46.655Z,12.55
2018-03-19T07:28:14.160Z,13.90
2018-03-19T07:30:41.678Z,13.13
2018-03-19T07:33:09.948Z,12.07
2018-03-19T07:35:37.451Z,13.05
2018-03-19T07:38:04.955Z,12.00
2018-03-19T07:40:32.451Z,11.18
2018-03-19T07:42:59.954Z,12.30
2018-03-19T07:45:27.451Z,11.82
2018-03-19T07:47:55.728Z,11.48
2018-03-19T07:50:24.013Z,13.50
2018-03-19T07:52:52.288Z,10.57
2018-03-19T07:55:20.576Z,12.48
2018-03-19T07:57:48.087Z,11.55
2018-03-19T08:00:15.955Z,11.70
2018-03-19T08:02:43.457Z,11.48
2018-03-19T08:05:11.719Z,12.68
2018-03-19T08:07:39.982Z,12.55
2018-03-19T08:10:07.507Z,11.65
2018-03-19T08:12:35.030Z,11.30
2018-03-19T08:15:02.573Z,11.30
2018-03-19T08:17:30.831Z,11.73
2018-03-19T08:19:59.119Z,11.77
2018-03-19T08:22:27.506Z,12.25
2018-03-19T08:24:55.787Z,12.05
2018-03-19T08:27:24.202Z,13.15
2018-03-19T08:29:51.748Z,11.30
2018-03-19T08:32:19.277Z,13.18
2018-03-19T08:34:47.539Z,10.98
2018-03-19T08:37:15.050Z,11.48
2018-03-19T08:39:42.594Z,11.55
2018-03-19T08:42:10.844Z,11.20
2018-03-19T08:44:39.126Z,12.00
2018-03-19T08:47:07.392Z,10.65
2018-03-19T08:49:35.460Z,11.60
2018-03-19T08:52:02.978Z,10.93
2018-03-19T08:54:30.491Z,11.80
2018-03-19T08:56:58.758Z,12.48
2018-03-19T08:59:26.255Z,12.10
2018-03-19T09:01:54.528Z,12.57
2018-03-19T09:04:22.100Z,10.45
2018-03-19T09:06:49.562Z,12.02
2018-03-19T09:09:17.059Z,13.10
2018-03-19T09:11:44.568Z,11.12
2018-03-19T09:14:12.070Z,10.90
2018-03-19T09:16:40.344Z,12.23
2018-03-19T09:19:07.849Z,12.90
2018-03-19T09:21:35.348Z,12.07
2018-03-19T09:24:02.851Z,12.18
2018-03-19T09:26:31.115Z,10.82
2018-03-19T09:28:59.407Z,12.82
2018-03-19T09:31:27.672Z,11.63
2018-03-19T09:33:55.931Z,12.52
2018-03-19T09:36:23.430Z,11.90
2018-03-19T09:38:50.939Z,11.20
2018-03-19T09:41:18.455Z,12.32
2018-03-19T09:43:45.955Z,12.23
2018-03-19T09:46:13.714Z,12.48
2018-03-19T09:48:41.379Z,12.80
2018-03-19T09:51:23.539Z,13.73
2018-03-19T09:53:51.078Z,12.98
2018-03-19T09:56:19.381Z,13.40
2018-03-19T09:58:46.910Z,13.85
2018-03-19T10:01:15.178Z,11.95
2018-03-19T10:03:43.452Z,13.02
2018-03-19T10:06:11.735Z,13.40
2018-03-19T10:08:39.999Z,13.18
2018-03-19T10:11:07.502Z,12.60
2018-03-19T10:13:35.023Z,12.45
2018-03-19T10:16:03.321Z,11.90
2018-03-19T10:18:30.871Z,12.20
2018-03-19T10:20:58.396Z,12.63
2018-03-19T10:23:25.909Z,13.43
2018-03-19T10:25:53.455Z,13.27
2018-03-19T10:28:21.734Z,12.23
2018-03-19T10:30:50.011Z,12.98
2018-03-19T10:33:17.574Z,13.75
2018-03-19T10:35:45.129Z,13.30
2018-03-19T10:38:12.711Z,13.77
2018-03-19T10:40:40.344Z,11.57
2018-03-19T10:43:08.649Z,11.85
2018-03-19T10:45:38.163Z,14.63
2018-03-19T10:48:05.719Z,14.05
2018-03-19T10:50:33.242Z,12.75
2018-03-19T10:53:01.545Z,13.65
2018-03-19T10:55:29.162Z,13.60
2018-03-19T10:57:56.710Z,13.70
2018-03-19T11:00:24.282Z,13.00
2018-03-19T11:02:54.476Z,12.35
2018-03-19T11:05:28.556Z,14.07
2018-03-19T11:08:01.743Z,13.93
2018-03-19T11:10:29.416Z,13.07
2018-03-19T11:12:56.959Z,15.05
2018-03-19T11:15:24.479Z,13.30
2018-03-19T11:17:51.986Z,13.75
2018-03-19T11:20:19.519Z,14.13
2018-03-19T11:22:47.809Z,14.50
2018-03-19T11:25:16.339Z,13.95
2018-03-19T11:27:43.850Z,14.45
2018-03-19T11:30:12.247Z,15.60
2018-03-19T11:32:39.789Z,13.85
2018-03-19T11:35:07.305Z,14.75
2018-03-19T11:37:34.837Z,14.00
2018-03-19T11:40:02.378Z,15.38
2018-03-19T11:42:29.954Z,14.57
2018-03-19T11:44:57.464Z,13.90
2018-03-19T11:47:25.789Z,12.93
2018-03-19T11:49:53.358Z,12.85
2018-03-19T11:52:20.895Z,14.90
2018-03-19T11:54:48.495Z,14.50
2018-03-19T11:57:16.939Z,13.27
2018-03-19T11:59:44.481Z,13.20
2018-03-19T12:02:12.058Z,14.68
2018-03-19T12:04:39.623Z,14.52
2018-03-19T12:07:07.174Z,14.50
2018-03-19T12:09:34.761Z,14.98
2018-03-19T12:12:02.330Z,14.48
2018-03-19T12:14:29.916Z,13.57
2018-03-19T12:16:58.270Z,15.02
2018-03-19T12:19:25.898Z,12.57
2018-03-19T12:21:53.467Z,14.87
2018-03-19T12:24:21.121Z,14.70
2018-03-19T12:26:48.680Z,14.40
2018-03-19T12:29:16.200Z,13.20
2018-03-19T12:31:44.498Z,13.38
2018-03-19T12:34:12.051Z,14.05
2018-03-19T12:36:39.609Z,15.07
2018-03-19T12:39:07.883Z,13.10
2018-03-19T12:41:36.187Z,13.95
2018-03-19T12:44:03.721Z,13.45
2018-03-19T12:46:32.029Z,16.30
2018-03-19T12:48:59.555Z,13.95
2018-03-19T12:51:30.761Z,14.70
2018-03-19T12:53:58.287Z,13.57
2018-03-19T12:56:25.847Z,14.80
2018-03-19T12:58:53.405Z,16.35
2018-03-19T13:01:20.945Z,15.43
2018-03-19T13:03:49.252Z,13.75
2018-03-19T13:06:16.763Z,14.15
2018-03-19T13:08:45.078Z,14.07
2018-03-19T13:11:12.594Z,15.60
2018-03-19T13:13:40.143Z,14.60
2018-03-19T13:16:07.683Z,16.23
2018-03-19T13:18:35.231Z,12.35
2018-03-19T13:21:02.881Z,14.85
2018-03-19T13:23:30.484Z,13.32
2018-03-19T13:25:57.960Z,14.57
2018-03-19T13:28:26.257Z,13.85
2018-03-19T13:30:53.817Z,14.55
2018-03-19T13:33:21.371Z,13.85
2018-03-19T13:35:49.648Z,14.65
2018-03-19T13:38:17.932Z,14.02
2018-03-19T13:40:45.473Z,15.02
2018-03-19T13:43:13.791Z,15.75
2018-03-19T13:45:41.328Z,16.12
2018-03-19T13:48:08.920Z,16.33
2018-03-19T13:50:36.478Z,15.50
2018-03-19T13:53:04.005Z,14.93
2018-03-19T13:55:31.581Z,15.05
2018-03-19T13:57:59.125Z,15.15
2018-03-19T14:00:26.675Z,15.93
2018-03-19T14:02:55.042Z,15.98
2018-03-19T14:05:23.423Z,15.85
2018-03-19T14:07:51.733Z,14.85
2018-03-19T14:10:19.271Z,14.57
2018-03-19T14:12:47.576Z,13.40
2018-03-19T14:15:15.156Z,15.98
2018-03-19T14:17:42.792Z,15.10
2018-03-19T14:20:10.370Z,14.15
2018-03-19T14:22:37.944Z,15.98
2018-03-19T14:25:05.548Z,17.58
2018-03-19T14:27:33.936Z,16.10
2018-03-19T14:30:02.252Z,15.00
2018-03-19T14:32:29.851Z,15.77
2018-03-19T14:34:58.275Z,15.93
2018-03-19T14:37:25.843Z,15.70
2018-03-19T14:39:53.369Z,14.95
2018-03-19T14:42:20.910Z,15.98
2018-03-19T14:44:49.240Z,15.48
2018-03-19T14:47:16.805Z,16.42
2018-03-19T14:49:44.366Z,16.85
2018-03-19T14:52:11.872Z,14.25
2018-03-19T14:54:40.135Z,15.35
2018-03-19T14:57:07.636Z,15.55
2018-03-19T14:59:35.140Z,16.20
2018-03-19T15:02:02.631Z,17.33
2018-03-19T15:04:30.935Z,16.00
2018-03-19T15:06:59.168Z,15.00
2018-03-19T15:09:27.450Z,15.65
2018-03-19T15:11:55.726Z,15.20
2018-03-19T15:14:23.991Z,16.05
2018-03-19T15:16:52.259Z,19.92
2018-03-19T15:19:20.539Z,15.05
2018-03-19T15:21:48.056Z,16.67
2018-03-19T15:24:15.565Z,14.73
2018-03-19T15:26:43.832Z,16.42
2018-03-19T15:29:11.327Z,15.82
2018-03-19T15:31:38.831Z,15.73
2018-03-19T15:34:06.322Z,15.13
2018-03-19T15:36:34.591Z,15.48
2018-03-19T15:39:02.862Z,15.65
2018-03-19T15:41:30.361Z,16.45
2018-03-19T15:43:57.903Z,15.55
2018-03-19T15:46:25.406Z,15.02
2018-03-19T15:48:52.903Z,16.25
2018-03-19T15:51:21.186Z,15.95
2018-03-19T15:53:49.495Z,16.52
2018-03-19T15:56:17.003Z,17.23
2018-03-19T15:58:44.531Z,15.77
2018-03-19T16:01:12.047Z,16.87
2018-03-19T16:03:40.307Z,15.10
2018-03-19T16:06:08.591Z,16.60
2018-03-19T16:08:36.876Z,16.00
2018-03-19T16:11:04.395Z,17.40
2018-03-19T16:13:31.895Z,17.62
2018-03-19T16:16:00.156Z,17.15
2018-03-19T16:18:28.444Z,15.45
2018-03-19T16:20:56.719Z,17.27
2018-03-19T16:23:24.979Z,17.50
2018-03-19T16:25:52.583Z,16.20
2018-03-19T16:28:20.086Z,17.45
2018-03-19T16:30:47.587Z,16.85
2018-03-19T16:33:15.116Z,17.27
2018-03-19T16:35:42.627Z,16.15
2018-03-19T16:38:10.131Z,15.85
2018-03-19T16:40:37.719Z,16.55
2018-03-19T16:43:05.218Z,16.60
2018-03-19T16:45:32.731Z,17.83
2018-03-19T16:48:00.999Z,18.35
2018-03-19T16:50:29.284Z,16.27
2018-03-19T16:52:57.564Z,17.70
2018-03-19T16:55:25.067Z,15.65
2018-03-19T16:57:52.583Z,17.17
2018-03-19T17:00:20.092Z,15.77
2018-03-19T17:02:47.587Z,16.70
2018-03-19T17:05:15.863Z,18.80
2018-03-19T17:07:44.136Z,16.50
2018-03-19T17:10:12.403Z,16.90
2018-03-19T17:12:40.938Z,17.60
2018-03-19T17:15:08.443Z,18.30
2018-03-19T17:17:35.944Z,17.87
2018-03-19T17:20:03.467Z,20.00
2018-03-19T17:22:31.740Z,19.35
2018-03-19T17:25:00.031Z,19.08
2018-03-19T17:27:28.315Z,20.12
2018-03-19T17:29:55.814Z,19.25
2018-03-19T17:32:23.330Z,19.23
2018-03-19T17:34:51.596Z,20.02
2018-03-19T17:37:19.880Z,20.80
2018-03-19T17:39:48.143Z,22.40
2018-03-19T17:42:16.407Z,22.15
2018-03-19T17:44:43.927Z,20.12
2018-03-19T17:47:11.431Z,21.75
2018-03-19T17:49:39.719Z,23.10
2018-03-19T17:52:07.983Z,25.65
2018-03-19T17:54:36.275Z,25.20
2018-03-19T17:57:04.547Z,21.73
2018-03-19T17:59:32.808Z,23.85
2018-03-19T18:02:00.331Z,24.48
2018-03-19T18:04:27.831Z,25.30
2018-03-19T18:06:56.103Z,23.42
2018-03-19T18:09:24.383Z,23.60
2018-03-19T18:11:52.655Z,23.38
2018-03-19T18:14:20.928Z,22.77
2018-03-19T18:16:49.228Z,22.30
2018-03-19T18:19:17.486Z,25.10
2018-03-19T18:21:44.995Z,25.05
2018-03-19T18:24:12.503Z,24.08
2018-03-19T18:26:40.020Z,22.23
2018-03-19T18:29:07.539Z,24.87
2018-03-19T18:31:35.802Z,24.37
2018-03-19T18:34:04.080Z,23.08
2018-03-19T18:36:32.343Z,23.20
2018-03-19T18:39:00.628Z,23.30
2018-03-19T18:41:28.896Z,26.70
2018-03-19T18:43:56.396Z,25.55
2018-03-19T18:46:23.891Z,26.37
2018-03-19T18:48:51.404Z,24.63
2018-03-19T18:51:18.908Z,24.70
2018-03-19T18:53:46.403Z,25.60
2018-03-19T18:56:14.675Z,25.37
2018-03-19T18:58:42.947Z,25.92
2018-03-19T19:01:10.544Z,23.75
2018-03-19T19:03:38.046Z,24.30
2018-03-19T19:06:05.557Z,25.25
2018-03-19T19:08:33.063Z,26.45
2018-03-19T19:11:00.572Z,26.48
2018-03-19T19:13:28.094Z,26.33
2018-03-19T19:15:56.356Z,25.70
2018-03-19T19:18:23.874Z,24.30
2018-03-19T19:20:51.398Z,25.73
2018-03-19T19:23:19.685Z,26.45
2018-03-19T19:25:47.959Z,26.20
2018-03-19T19:28:16.227Z,25.10
2018-03-19T19:30:44.528Z,26.70
2018-03-19T19:33:12.029Z,27.02
2018-03-19T19:35:39.534Z,29.98
2018-03-19T19:38:07.048Z,26.55
2018-03-19T19:40:34.544Z,27.05
2018-03-19T19:43:02.807Z,27.55
2018-03-19T19:45:30.319Z,27.33
2018-03-19T19:47:57.835Z,28.98
2018-03-19T19:50:26.126Z,26.10
2018-03-19T19:52:53.635Z,25.88
2018-03-19T19:55:21.159Z,26.30
2018-03-19T19:57:48.679Z,27.67
2018-03-19T20:00:16.951Z,26.60
2018-03-19T20:02:44.449Z,27.37
2018-03-19T20:05:11.943Z,27.10
2018-03-19T20:07:39.444Z,28.58
2018-03-19T20:10:07.736Z,26.80
2018-03-19T20:12:35.251Z,26.20
2018-03-19T20:15:02.825Z,26.27
2018-03-19T20:17:30.284Z,27.35
2018-03-19T20:19:58.601Z,27.60
2018-03-19T20:22:26.134Z,27.85
2018-03-19T20:24:54.400Z,27.48
2018-03-19T20:27:22.690Z,27.13
2018-03-19T20:29:50.991Z,26.20
2018-03-19T20:32:18.491Z,24.58
2018-03-19T20:34:46.007Z,27.77
2018-03-19T20:37:13.524Z,24.92
2018-03-19T20:39:41.799Z,26.48
2018-03-19T20:42:09.320Z,26.35
2018-03-19T20:44:36.823Z,26.25
2018-03-19T20:47:05.095Z,24.75
2018-03-19T20:49:33.375Z,27.25
2018-03-19T20:52:01.652Z,26.05
2018-03-19T20:54:30.009Z,24.65
2018-03-19T20:56:57.455Z,26.23
2018-03-19T20:59:24.982Z,25.65
2018-03-19T21:01:52.491Z,28.20
2018-03-19T21:04:20.000Z,27.55
2018-03-19T21:06:47.511Z,23.65
2018-03-19T21:09:15.032Z,26.42
2018-03-19T21:11:42.530Z,25.02
2018-03-19T21:14:10.028Z,25.05
2018-03-19T21:16:37.527Z,24.75
2018-03-19T21:19:05.044Z,26.52
2018-03-19T21:21:32.576Z,26.65
2018-03-19T21:24:00.847Z,27.13
2018-03-19T21:26:29.118Z,27.25
2018-03-19T21:28:56.619Z,27.70
2018-03-19T21:31:24.116Z,27.62
2018-03-19T21:33:51.632Z,25.70
2018-03-19T21:36:19.139Z,25.80
2018-03-19T21:38:47.419Z,23.80
2018-03-19T21:41:14.932Z,26.20
2018-03-19T21:43:42.451Z,26.83
2018-03-19T21:46:10.717Z,27.00
2018-03-19T21:48:38.218Z,24.00
2018-03-19T21:51:06.479Z,26.45
2018-03-19T21:53:33.983Z,25.75
2018-03-19T21:56:01.479Z,29.02
2018-03-19T21:58:29.759Z,27.17
2018-03-19T22:00:58.016Z,27.20
2018-03-19T22:03:25.515Z,27.15
2018-03-19T22:05:53.020Z,27.95
2018-03-19T22:08:20.538Z,26.20
2018-03-19T22:10:48.051Z,23.95
2018-03-19T22:13:15.560Z,24.02
2018-03-19T22:15:43.064Z,30.10
2018-03-19T22:18:10.591Z,26.65
2018-03-19T22:20:38.102Z,24.80
2018-03-19T22:23:06.366Z,27.48
2018-03-19T22:25:33.878Z,25.95
2018-03-19T22:28:01.392Z,26.00
2018-03-19T22:30:29.655Z,27.55
2018-03-19T22:32:57.151Z,24.95
2018-03-19T22:35:24.680Z,23.25
2018-03-19T22:37:52.182Z,25.48
2018-03-19T22:40:19.696Z,27.25
2018-03-19T22:42:47.299Z,27.77
2018-03-19T22:45:14.818Z,25.50
2018-03-19T22:47:42.328Z,24.45
2018-03-19T22:50:09.839Z,28.27
2018-03-19T22:52:38.112Z,25.55
2018-03-19T22:55:05.624Z,21.23
2018-03-19T22:57:33.120Z,28.02
2018-03-19T23:00:00.626Z,26.10
2018-03-19T23:02:28.122Z,26.37
2018-03-19T23:18:24.201Z,22.65
2018-03-19T23:20:51.702Z,26.00
2018-03-19T23:23:19.199Z,27.00
2018-03-19T23:25:47.458Z,25.37
2018-03-19T23:28:15.723Z,26.60
2018-03-19T23:30:43.330Z,26.08
2018-03-19T23:33:10.828Z,28.02
2018-03-19T23:35:38.346Z,27.02
2018-03-19T23:38:05.855Z,25.23
2018-03-19T23:40:33.439Z,28.33
2018-03-19T23:43:01.731Z,29.05
2018-03-19T23:45:29.228Z,28.40
2018-03-19T23:47:56.723Z,26.60
2018-03-19T23:50:24.988Z,28.42
2018-03-19T23:52:52.489Z,28.25
2018-03-19T23:55:20.008Z,29.00
2018-03-19T23:57:47.512Z,28.30
